Time;durP1;ratioP1;P1;durP2;ratioP2;P2;SDS_P1;SDS_P2;PMS_P1;PMS_P2;Temp;Humidity;BMP_temperature;BMP_pressure;BME280_temperature;BME280_humidity;BME280_pressure;Samples;Min_cycle;Max_cycle;Signal;HPM_P1;HPM_P2
2021/06/23 00:01:26;;;;;;;3.00;1.85;;;10.10;99.90;;;8.56;100.00;101493.41;5018702;28;20074;-72
2021/06/23 00:03:52;;;;;;;5.13;2.22;;;10.10;99.90;;;8.57;100.00;101489.00;5015137;28;20108;-72
2021/06/23 00:06:18;;;;;;;8.65;2.80;;;10.00;99.90;;;8.59;100.00;101493.31;5022842;28;20138;-72
2021/06/23 00:08:44;;;;;;;9.75;3.17;;;10.10;99.90;;;8.60;100.00;101495.03;5021350;28;20598;-72
2021/06/23 00:11:10;;;;;;;15.32;3.28;;;10.10;99.90;;;8.62;100.00;101492.38;5017655;28;20074;-73
2021/06/23 00:13:36;;;;;;;11.13;3.45;;;10.10;99.90;;;8.68;100.00;101486.94;5023887;28;20511;-73
2021/06/23 00:16:08;;;;;;;10.85;4.00;;;10.10;99.90;;;8.82;100.00;101491.84;5018441;28;20099;-72
2021/06/23 00:18:35;;;;;;;10.90;4.28;;;10.40;99.90;;;8.92;100.00;101484.56;5018536;28;20087;-72
2021/06/23 00:21:02;;;;;;;11.77;4.00;;;10.30;99.90;;;8.87;100.00;101481.22;5018892;28;20066;-73
2021/06/23 00:23:28;;;;;;;9.27;3.75;;;10.30;99.90;;;8.86;100.00;101476.88;4987122;28;20144;-72
2021/06/23 00:25:57;;;;;;;10.05;4.50;;;10.30;99.90;;;8.97;100.00;101487.94;5016122;28;20544;-72
2021/06/23 00:28:23;;;;;;;11.02;4.40;;;10.50;99.90;;;9.08;100.00;101496.38;5022658;28;20115;-73
2021/06/23 00:30:49;;;;;;;15.50;4.78;;;10.50;99.90;;;9.13;100.00;101485.75;5019763;28;20511;-72
2021/06/23 00:33:26;;;;;;;11.35;4.25;;;10.50;99.90;;;9.16;100.00;101489.16;5017690;28;20432;-73
2021/06/23 00:35:52;;;;;;;19.83;4.68;;;10.60;99.90;;;9.28;100.00;101481.81;5021930;28;20097;-72
2021/06/23 00:38:18;;;;;;;8.93;4.60;;;10.70;99.90;;;9.33;100.00;101486.03;5022610;28;20064;-73
2021/06/23 00:40:45;;;;;;;13.98;4.95;;;10.80;99.90;;;9.37;100.00;101473.66;5023958;28;20066;-72
2021/06/23 00:43:13;;;;;;;15.25;4.95;;;10.80;99.90;;;9.41;100.00;101483.16;5020992;28;20291;-73
2021/06/23 00:45:40;;;;;;;15.02;5.30;;;10.80;99.90;;;9.43;100.00;101476.94;5023510;28;20070;-72
2021/06/23 00:48:10;;;;;;;14.98;4.63;;;10.80;99.90;;;9.40;100.00;101473.56;5037871;28;20072;-72
2021/06/23 00:50:40;;;;;;;12.65;5.65;;;10.90;99.90;;;9.47;100.00;101482.13;5024521;28;20113;-73
2021/06/23 00:53:06;;;;;;;8.93;4.53;;;10.80;99.90;;;9.37;100.00;101461.41;5035025;28;20069;-72
2021/06/23 00:55:32;;;;;;;10.20;4.35;;;10.70;99.90;;;9.17;100.00;101461.09;5020983;28;20082;-72
2021/06/23 00:57:58;;;;;;;11.23;4.35;;;10.50;99.90;;;8.99;100.00;101446.75;5008744;28;20068;-72
2021/06/23 01:00:31;;;;;;;7.15;3.85;;;10.40;99.90;;;8.89;100.00;101440.00;5022249;28;20522;-73
2021/06/23 01:02:59;;;;;;;14.43;4.10;;;10.30;99.90;;;8.77;100.00;101435.97;5005509;28;20627;-72
2021/06/23 01:05:25;;;;;;;14.13;4.05;;;10.20;99.90;;;8.64;100.00;101435.44;5018712;28;20064;-72
2021/06/23 01:07:52;;;;;;;6.03;3.65;;;10.10;99.90;;;8.57;100.00;101436.50;5023030;28;20087;-72
2021/06/23 01:10:18;;;;;;;12.98;3.47;;;10.00;99.90;;;8.59;100.00;101434.69;5021365;28;20081;-73
2021/06/23 01:13:01;;;;;;;10.40;4.03;;;10.10;99.90;;;8.63;100.00;101445.06;5021340;28;20110;-73
2021/06/23 01:15:28;;;;;;;13.52;4.57;;;10.10;99.90;;;8.66;100.00;101444.16;5021853;28;20076;-73
2021/06/23 01:17:54;;;;;;;20.10;5.68;;;10.20;99.90;;;8.85;100.00;101452.34;5020971;28;20070;-73
2021/06/23 01:20:22;;;;;;;17.73;6.28;;;10.40;99.90;;;9.15;100.00;101457.66;5021023;28;20484;-73
2021/06/23 01:22:48;;;;;;;19.95;6.97;;;10.50;99.90;;;9.18;100.00;101454.97;5003306;28;20458;-73
2021/06/23 01:25:16;;;;;;;16.23;6.22;;;10.60;99.90;;;9.23;100.00;101453.91;5024614;28;20076;-73
2021/06/23 01:27:44;;;;;;;15.85;6.57;;;10.70;99.90;;;9.31;100.00;101447.53;5024662;28;20506;-73
2021/06/23 01:30:14;;;;;;;22.60;7.38;;;10.70;99.90;;;9.35;100.00;101457.06;5019148;28;20178;-73
2021/06/23 01:32:40;;;;;;;16.40;6.85;;;10.70;99.90;;;9.33;100.00;101466.75;5021806;28;20146;-72
2021/06/23 01:35:07;;;;;;;14.70;6.20;;;10.70;99.90;;;9.27;100.00;101464.34;5020359;28;20556;-73
2021/06/23 01:37:33;;;;;;;13.88;6.32;;;10.60;99.90;;;9.22;100.00;101467.06;5003323;28;20061;-73
2021/06/23 01:40:00;;;;;;;14.95;5.68;;;10.60;99.90;;;9.19;100.00;101468.03;4988144;28;20519;-72
2021/06/23 01:42:27;;;;;;;17.33;5.70;;;10.60;99.90;;;9.20;100.00;101468.88;5005321;28;20554;-72
2021/06/23 01:44:53;;;;;;;18.85;6.18;;;10.60;99.90;;;9.24;100.00;101470.50;5018989;28;20078;-72
2021/06/23 01:47:19;;;;;;;23.75;6.50;;;10.70;99.90;;;9.33;100.00;101467.63;5021272;28;20073;-72
2021/06/23 01:49:46;;;;;;;14.52;5.93;;;10.70;99.90;;;9.32;100.00;101483.44;5013314;28;20062;-73
2021/06/23 01:52:12;;;;;;;11.57;5.22;;;10.70;99.90;;;9.15;100.00;101474.28;5020514;28;20058;-73
2021/06/23 01:54:43;;;;;;;13.10;5.18;;;10.50;99.90;;;9.02;100.00;101471.13;5021591;28;20086;-73
2021/06/23 01:57:14;;;;;;;11.25;4.80;;;10.40;99.90;;;8.97;100.00;101475.66;5006350;28;20088;-72
2021/06/23 01:59:40;;;;;;;16.85;4.57;;;10.30;99.90;;;8.91;100.00;101475.81;4994736;28;20074;-73
2021/06/23 02:02:18;;;;;;;11.38;3.95;;;10.30;99.90;;;8.85;100.00;101468.13;5002678;28;20109;-73
2021/06/23 02:05:25;;;;;;;14.50;4.68;;;10.20;99.90;;;8.76;100.00;101466.59;5010468;28;20103;-73
2021/06/23 02:07:59;;;;;;;10.50;4.67;;;10.30;99.90;;;8.86;100.00;101474.25;4973240;28;20551;-72
2021/06/23 02:10:52;;;;;;;9.52;4.65;;;10.30;99.90;;;8.84;100.00;101474.28;4989102;28;21063;-72
2021/06/23 02:13:30;;;;;;;16.30;4.95;;;10.30;99.90;;;8.96;100.00;101483.56;5019528;28;20482;-72
2021/06/23 02:15:57;;;;;;;16.00;5.53;;;10.40;99.90;;;9.04;100.00;101485.09;5001820;28;20081;-73
2021/06/23 02:18:27;;;;;;;16.35;5.53;;;10.50;99.90;;;9.13;100.00;101489.22;5018442;28;20068;-73
2021/06/23 02:20:57;;;;;;;17.35;6.50;;;10.50;99.90;;;9.20;100.00;101480.28;4983574;28;20066;-72
2021/06/23 02:23:25;;;;;;;19.92;5.88;;;10.60;99.90;;;9.21;100.00;101470.63;5020141;28;20164;-73
2021/06/23 02:25:52;;;;;;;17.40;6.00;;;10.60;99.90;;;9.22;100.00;101469.69;5020226;28;20092;-72
2021/06/23 02:28:18;;;;;;;14.40;6.22;;;10.60;99.90;;;9.31;100.00;101474.72;5011852;28;20062;-72
2021/06/23 02:30:45;;;;;;;21.45;7.00;;;10.80;99.90;;;9.43;100.00;101490.09;5009596;28;20165;-72
2021/06/23 02:33:12;;;;;;;19.90;7.47;;;10.80;99.90;;;9.38;100.00;101488.53;5023622;28;20062;-72
2021/06/23 02:35:40;;;;;;;17.58;6.45;;;10.70;99.90;;;9.37;100.00;101487.69;5020496;28;22296;-73
2021/06/23 02:38:06;;;;;;;19.58;7.22;;;10.70;99.90;;;9.33;100.00;101480.78;5020094;28;20059;-73
2021/06/23 02:40:36;;;;;;;18.40;6.40;;;10.70;99.90;;;9.30;100.00;101482.63;5010473;28;20082;-73
2021/06/23 02:43:02;;;;;;;16.17;6.35;;;10.60;99.90;;;9.31;100.00;101486.97;5036705;28;20180;-73
2021/06/23 02:45:29;;;;;;;19.08;6.22;;;10.70;99.90;;;9.33;100.00;101504.44;5022126;28;20068;-72
2021/06/23 02:47:56;;;;;;;16.60;6.75;;;10.70;99.90;;;9.33;100.00;101506.19;5018866;28;20065;-72
2021/06/23 02:50:23;;;;;;;14.43;6.70;;;10.70;99.90;;;9.35;100.00;101492.13;5026255;28;20078;-73
2021/06/23 02:52:50;;;;;;;14.00;6.60;;;10.70;99.90;;;9.20;100.00;101493.41;5036434;28;20055;-72
2021/06/23 02:55:19;;;;;;;14.70;5.90;;;10.60;99.90;;;9.18;100.00;101495.22;5019826;28;20095;-72
2021/06/23 02:57:48;;;;;;;13.90;5.78;;;10.60;99.90;;;9.17;100.00;101501.38;5009802;28;20055;-73
2021/06/23 03:00:15;;;;;;;16.95;6.05;;;10.60;99.90;;;9.21;100.00;101510.03;5020525;28;20074;-72
2021/06/23 03:02:40;;;;;;;18.20;5.35;;;10.60;99.90;;;9.19;100.00;101507.44;4983319;28;20067;-72
2021/06/23 03:05:07;;;;;;;12.52;5.78;;;10.60;99.90;;;9.43;100.00;101528.66;5015384;28;20063;-72
2021/06/23 03:07:33;;;;;;;10.00;5.72;;;10.70;99.90;;;9.34;100.00;101550.81;5017997;28;20150;-72
2021/06/23 03:10:12;;;;;;;16.27;5.75;;;10.50;99.90;;;9.12;100.00;101558.44;5000866;28;20121;-72
2021/06/23 03:12:39;;;;;;;15.00;5.80;;;10.40;99.90;;;9.07;100.00;101549.84;5007308;28;20076;-72
2021/06/23 03:15:07;;;;;;;14.55;5.85;;;10.50;99.90;;;9.20;100.00;101548.59;4980735;28;20056;-72
2021/06/23 03:17:33;;;;;;;12.98;6.47;;;10.60;99.90;;;9.31;100.00;101550.03;5000296;28;20508;-72
2021/06/23 03:20:06;;;;;;;17.65;5.65;;;10.60;99.90;;;9.35;100.00;101552.56;4997468;28;20063;-72
2021/06/23 03:22:32;;;;;;;14.45;5.70;;;10.80;99.90;;;9.42;100.00;101550.63;5028520;28;20046;-72
2021/06/23 03:24:58;;;;;;;12.07;5.60;;;10.70;99.90;;;9.16;100.00;101544.31;5022294;28;20742;-73
2021/06/23 03:27:24;;;;;;;11.38;4.97;;;10.60;99.90;;;8.98;100.00;101555.31;5009537;28;20503;-73
2021/06/23 03:29:49;;;;;;;16.38;4.72;;;10.40;99.90;;;8.80;100.00;101565.41;5011029;28;20058;-72
2021/06/23 03:32:15;;;;;;;11.35;5.15;;;10.40;99.90;;;8.95;100.00;101568.56;5025191;28;20073;-73
2021/06/23 03:34:41;;;;;;;11.10;4.50;;;10.40;99.90;;;8.96;100.00;101560.63;5014548;28;20081;-72
2021/06/23 03:37:08;;;;;;;11.10;4.15;;;10.60;99.90;;;9.19;100.00;101546.00;5016623;28;20141;-72
2021/06/23 03:39:35;;;;;;;9.90;4.68;;;10.70;99.90;;;9.29;100.00;101544.84;5019705;28;20149;-72
2021/06/23 03:42:01;;;;;;;13.45;4.57;;;10.70;99.90;;;9.77;100.00;101532.94;5017469;28;20055;-72
2021/06/23 03:44:27;;;;;;;12.45;4.60;;;12.10;99.90;;;10.73;100.00;101534.22;5007789;28;20062;-72
2021/06/23 03:46:55;;;;;;;10.25;4.05;;;13.20;99.90;;;11.63;97.92;101538.00;5011586;28;20113;-72
2021/06/23 03:49:22;;;;;;;10.93;3.10;;;14.20;99.90;;;12.51;92.03;101556.56;5023157;28;20087;-72
2021/06/23 03:51:48;;;;;;;10.55;2.30;;;15.20;99.90;;;13.46;86.78;101553.41;4993300;28;20509;-72
2021/06/23 03:54:14;;;;;;;6.18;2.15;;;16.20;99.90;;;14.44;84.29;101561.09;5012380;28;21099;-72
2021/06/23 03:56:40;;;;;;;5.53;1.75;;;17.30;99.90;;;15.26;81.47;101540.09;5011503;28;20522;-73
2021/06/23 03:59:06;;;;;;;5.80;1.92;;;18.00;99.90;;;15.67;78.88;101544.13;5024964;28;20405;-73
2021/06/23 04:01:32;;;;;;;5.05;1.75;;;18.80;99.90;;;16.17;77.46;101538.66;5023966;28;20021;-73
2021/06/23 04:03:58;;;;;;;6.35;1.60;;;19.50;99.90;;;17.02;73.35;101537.22;5025548;28;20369;-74
2021/06/23 04:06:23;;;;;;;9.98;1.80;;;20.00;99.90;;;17.72;70.34;101547.09;5019090;28;20029;-73
2021/06/23 04:08:49;;;;;;;10.77;2.30;;;20.50;99.90;;;17.18;70.63;101521.19;5024832;28;20043;-73
2021/06/23 04:11:15;;;;;;;11.35;1.55;;;20.70;99.90;;;17.83;69.85;101520.66;5016079;28;20037;-73
2021/06/23 04:13:41;;;;;;;8.30;1.60;;;21.10;99.90;;;18.54;67.28;101512.47;5016404;28;20029;-72
2021/06/23 04:16:07;;;;;;;5.30;1.80;;;21.40;99.90;;;18.94;65.69;101523.09;5007021;28;20485;-73
2021/06/23 04:18:33;;;;;;;3.95;1.60;;;22.00;99.90;;;19.24;65.02;101517.44;5025963;28;20029;-73
2021/06/23 04:20:59;;;;;;;5.25;1.50;;;22.70;99.90;;;19.87;64.13;101512.97;5027373;28;20033;-73
2021/06/23 04:23:25;;;;;;;5.75;1.65;;;23.40;99.90;;;20.40;62.07;101523.28;5019783;28;20033;-73
2021/06/23 04:25:51;;;;;;;6.80;1.70;;;23.90;99.90;;;20.77;60.59;101521.34;5015325;28;20049;-73
2021/06/23 04:28:17;;;;;;;6.28;1.83;;;24.40;99.90;;;21.41;57.25;101520.84;5026465;28;20022;-73
2021/06/23 04:30:43;;;;;;;6.03;1.98;;;24.40;99.80;;;21.56;55.62;101531.31;5025115;28;20603;-73
2021/06/23 04:33:09;;;;;;;7.65;1.83;;;24.60;99.20;;;21.75;54.76;101523.50;5039650;28;20021;-74
2021/06/23 04:35:35;;;;;;;5.55;1.77;;;24.60;99.20;;;21.75;55.92;101525.28;5009068;28;20050;-73
2021/06/23 04:38:02;;;;;;;9.40;1.90;;;24.90;99.10;;;21.96;55.46;101536.94;5024540;28;20397;-73
2021/06/23 04:40:27;;;;;;;5.88;1.60;;;24.60;97.50;;;21.71;53.33;101544.31;5031945;28;20029;-74
2021/06/23 04:42:53;;;;;;;8.13;1.73;;;23.30;99.90;;;21.38;56.07;101545.19;5039314;28;20037;-73
2021/06/23 04:45:20;;;;;;;4.65;1.48;;;22.60;99.90;;;20.64;57.47;101553.56;4990498;28;21693;-73
2021/06/23 04:47:46;;;;;;;7.05;1.67;;;22.20;99.90;;;20.65;58.19;101554.44;4998131;28;20026;-73
2021/06/23 04:50:13;;;;;;;12.65;2.17;;;22.10;99.90;;;20.81;57.57;101568.31;5004317;28;20362;-73
2021/06/23 04:52:39;;;;;;;5.80;1.67;;;21.70;99.90;;;20.61;58.33;101577.88;5006158;28;20038;-73
2021/06/23 04:55:07;;;;;;;5.47;1.75;;;21.40;99.90;;;19.99;59.32;101578.03;5006537;28;20060;-73
2021/06/23 04:57:33;;;;;;;8.65;1.85;;;21.30;99.90;;;20.14;59.35;101570.69;5005184;28;20030;-73
2021/06/23 04:59:59;;;;;;;8.93;1.77;;;21.90;99.90;;;21.45;54.67;101578.56;5007758;28;20062;-73
2021/06/23 05:02:26;;;;;;;13.68;2.00;;;21.80;99.90;;;21.12;55.80;101570.47;4986804;28;20437;-73
2021/06/23 05:04:51;;;;;;;9.50;2.00;;;22.00;99.90;;;21.58;54.87;101577.59;4989611;28;20018;-73
2021/06/23 05:07:17;;;;;;;9.68;2.03;;;22.40;99.90;;;21.22;55.75;101601.75;4995912;28;20026;-73
2021/06/23 05:09:43;;;;;;;7.32;1.67;;;22.00;99.90;;;20.76;57.62;101615.16;4991430;28;20092;-74
2021/06/23 05:12:10;;;;;;;7.47;1.77;;;21.70;99.90;;;20.32;59.02;101628.16;4993549;28;20105;-73
2021/06/23 05:14:37;;;;;;;5.95;1.50;;;20.90;99.90;;;20.16;60.16;101624.91;5018258;28;20362;-73
2021/06/23 05:17:04;;;;;;;7.40;1.88;;;21.10;99.90;;;20.21;58.75;101623.59;4996545;28;20540;-73
2021/06/23 05:19:30;;;;;;;6.38;1.83;;;21.80;99.90;;;21.34;55.83;101613.34;4997932;28;20588;-73
2021/06/23 05:22:00;;;;;;;9.43;1.65;;;22.70;99.90;;;21.95;54.00;101621.06;5012702;28;20038;-73
2021/06/23 05:24:26;;;;;;;6.78;2.00;;;22.60;99.90;;;21.46;54.97;101614.25;5015892;28;20104;-73
2021/06/23 05:26:52;;;;;;;12.18;1.98;;;22.40;99.90;;;21.00;55.70;101620.47;5001930;28;20481;-73
2021/06/23 05:29:18;;;;;;;7.43;1.90;;;22.30;99.90;;;21.45;53.45;101616.06;5004335;28;20038;-73
2021/06/23 05:31:44;;;;;;;9.05;1.70;;;22.30;99.90;;;21.37;54.56;101612.25;5006910;28;20046;-73
2021/06/23 05:34:10;;;;;;;9.88;1.90;;;22.10;99.90;;;21.27;54.73;101609.44;4985216;28;20453;-73
2021/06/23 05:36:35;;;;;;;6.72;1.60;;;22.80;99.90;;;22.54;52.95;101611.78;4984426;28;20038;-73
2021/06/23 05:39:02;;;;;;;9.02;1.83;;;24.40;99.40;;;23.25;48.94;101601.31;4982798;28;20498;-73
2021/06/23 05:41:28;;;;;;;6.63;1.40;;;25.00;98.70;;;24.05;46.88;101596.13;5000576;28;20042;-73
2021/06/23 05:43:53;;;;;;;6.07;1.83;;;25.80;97.40;;;23.62;48.23;101586.47;5003196;28;20567;-73
2021/06/23 05:46:20;;;;;;;6.90;2.00;;;26.50;95.60;;;24.18;47.21;101591.34;4975946;28;20033;-73
2021/06/23 05:48:47;;;;;;;6.53;1.75;;;27.10;94.50;;;24.50;47.51;101579.50;5001075;28;20382;-73
2021/06/23 05:51:12;;;;;;;10.55;2.05;;;27.90;91.30;;;25.82;41.57;101585.81;4992565;28;20033;-73
2021/06/23 05:53:38;;;;;;;5.90;1.70;;;26.10;92.30;;;24.35;44.13;101595.19;5009167;28;20030;-73
2021/06/23 05:56:05;;;;;;;9.20;2.05;;;25.00;94.20;;;24.11;45.76;101606.34;5000906;28;20037;-73
2021/06/23 05:58:30;;;;;;;5.65;1.55;;;24.00;95.70;;;22.98;47.74;101619.75;4999925;28;20430;-73
2021/06/23 06:00:56;;;;;;;8.20;1.73;;;24.20;96.60;;;23.55;48.79;101605.84;4994054;28;20025;-73
2021/06/23 06:03:22;;;;;;;9.30;2.03;;;26.20;94.60;;;24.83;44.79;101609.66;5000092;28;22608;-74
2021/06/23 06:05:48;;;;;;;5.70;1.80;;;27.40;92.60;;;25.78;43.59;101614.09;5002903;28;20026;-73
2021/06/23 06:08:14;;;;;;;6.88;1.67;;;28.10;90.60;;;26.22;41.24;101616.13;5001667;28;20018;-74
2021/06/23 06:10:40;;;;;;;5.53;1.52;;;27.50;89.00;;;25.36;41.38;101611.88;5003185;28;20029;-73
2021/06/23 06:13:06;;;;;;;6.18;1.65;;;27.00;91.00;;;24.34;45.63;101618.56;5005523;28;20021;-73
2021/06/23 06:15:34;;;;;;;6.32;1.63;;;27.10;89.80;;;25.10;42.80;101614.31;5001987;28;20030;-73
2021/06/23 06:18:05;;;;;;;5.93;1.60;;;25.70;90.80;;;24.04;43.59;101619.50;5001194;28;20033;-73
2021/06/23 06:20:32;;;;;;;7.80;1.52;;;25.10;92.30;;;24.44;44.65;101626.63;4992198;28;20033;-73
2021/06/23 06:22:58;;;;;;;6.75;1.35;;;25.40;91.80;;;24.67;41.92;101629.94;5000611;28;20029;-73
2021/06/23 06:25:25;;;;;;;9.02;1.50;;;24.80;92.00;;;23.79;44.17;101634.28;5000633;28;20025;-73
2021/06/23 06:27:51;;;;;;;9.55;1.65;;;24.70;92.10;;;24.43;42.93;101630.31;4998313;28;20465;-73
2021/06/23 06:30:19;;;;;;;5.95;1.88;;;24.90;92.30;;;24.51;41.90;101632.34;4968604;28;20044;-73
2021/06/23 06:32:45;;;;;;;7.88;2.00;;;24.10;92.30;;;22.92;44.91;101634.56;4993048;28;20069;-73
2021/06/23 06:35:11;;;;;;;4.75;1.60;;;24.30;93.50;;;24.15;44.46;101632.81;4997107;28;20034;-73
2021/06/23 06:37:38;;;;;;;4.47;1.27;;;25.90;90.90;;;25.37;40.59;101627.03;4982785;28;20101;-73
2021/06/23 06:40:05;;;;;;;5.72;1.50;;;25.40;91.10;;;24.34;41.88;101620.38;4989610;28;20076;-73
2021/06/23 06:42:31;;;;;;;8.43;1.83;;;25.80;91.30;;;24.88;42.69;101624.41;4991078;28;20024;-73
2021/06/23 06:44:57;;;;;;;4.88;1.50;;;25.60;89.80;;;23.78;42.38;101629.00;4999071;28;20026;-73
2021/06/23 06:47:23;;;;;;;4.88;1.48;;;24.50;91.10;;;23.55;43.06;101623.81;5003758;28;20034;-73
2021/06/23 06:49:48;;;;;;;6.20;1.88;;;23.80;92.20;;;23.07;44.30;101627.94;5000679;28;20045;-73
2021/06/23 06:52:14;;;;;;;6.13;1.83;;;24.10;92.10;;;24.25;42.22;101621.22;5018092;28;20030;-72
2021/06/23 06:54:40;;;;;;;10.75;1.95;;;25.60;91.50;;;25.52;39.15;101617.47;5002943;28;20521;-73
2021/06/23 06:57:06;;;;;;;8.85;1.58;;;25.40;91.60;;;25.20;41.44;101625.09;4995426;28;20083;-73
2021/06/23 06:59:32;;;;;;;7.22;1.48;;;25.90;87.80;;;25.50;38.40;101618.63;4996238;28;20018;-73
2021/06/23 07:01:58;;;;;;;5.20;1.45;;;26.30;89.50;;;25.38;40.06;101626.88;5001375;28;20421;-73
2021/06/23 07:04:24;;;;;;;5.95;1.65;;;26.30;88.50;;;24.63;40.92;101625.81;4998221;28;20049;-73
2021/06/23 07:06:51;;;;;;;8.85;1.80;;;25.60;89.80;;;24.95;40.75;101636.31;4998323;28;20037;-73
2021/06/23 07:09:17;;;;;;;7.07;1.70;;;25.30;90.80;;;24.86;42.10;101641.69;4999815;28;20100;-73
2021/06/23 07:11:46;;;;;;;9.40;1.65;;;25.70;90.00;;;24.58;40.57;101632.63;4989908;28;20030;-73
2021/06/23 07:14:12;;;;;;;3.47;1.20;;;24.70;90.80;;;23.02;45.40;101640.88;4999194;28;20030;-73
2021/06/23 07:16:38;;;;;;;4.43;1.20;;;24.30;91.40;;;22.22;46.97;101635.88;4992058;28;20393;-73
2021/06/23 07:19:04;;;;;;;5.55;1.27;;;24.10;92.10;;;22.80;46.39;101639.13;5003424;28;20096;-73
2021/06/23 07:21:30;;;;;;;4.60;1.20;;;24.10;91.90;;;23.17;46.06;101637.88;5001908;28;20034;-73
2021/06/23 07:23:58;;;;;;;6.47;1.35;;;24.50;92.00;;;23.67;44.56;101638.00;4999315;28;20018;-73
2021/06/23 07:26:29;;;;;;;4.93;1.30;;;24.80;90.40;;;22.81;45.36;101638.16;5000650;28;20054;-73
2021/06/23 07:28:56;;;;;;;7.15;1.83;;;24.30;92.40;;;22.59;47.46;101640.91;4995614;28;20025;-73
2021/06/23 07:31:38;;;;;;;5.68;1.63;;;24.20;93.00;;;22.52;47.62;101645.94;4999071;28;20506;-73
2021/06/23 07:36:48;;;;;;;7.47;1.40;;;23.80;91.60;;;21.69;48.44;101645.44;4995490;28;20498;-73
2021/06/23 07:39:18;;;;;;;7.03;1.58;;;23.90;93.90;;;23.40;45.36;101642.13;5015833;28;20033;-73
2021/06/23 07:41:48;;;;;;;6.15;1.40;;;24.40;92.20;;;24.78;41.96;101628.94;4991335;28;20033;-73
2021/06/23 07:44:17;;;;;;;4.03;1.17;;;25.10;91.80;;;25.18;40.13;101631.47;4991354;28;20033;-73
2021/06/23 07:46:49;;;;;;;2.80;1.20;;;25.70;89.80;;;25.97;37.78;101627.50;4997580;28;20121;-73
2021/06/23 07:49:17;;;;;;;7.60;1.88;;;25.70;89.20;;;25.23;39.62;101638.28;4982909;28;20033;-73
2021/06/23 07:52:28;;;;;;;6.63;1.63;;;25.00;90.40;;;24.95;41.47;101638.16;4999446;28;20020;-73
2021/06/23 08:10:39;;;;;;;7.47;1.30;;;25.40;89.50;;;25.36;39.81;101633.44;4999058;28;20030;-73
2021/06/23 08:13:07;;;;;;;5.03;1.40;;;25.50;88.80;;;25.00;39.98;101633.19;4982698;28;20207;-73
2021/06/23 08:15:37;;;;;;;6.57;1.73;;;25.50;90.40;;;25.01;40.69;101629.50;4998407;28;20034;-73
2021/06/23 08:18:04;;;;;;;8.45;1.70;;;25.60;90.10;;;25.34;39.80;101633.56;4999345;28;20022;-73
2021/06/23 08:20:31;;;;;;;6.43;1.80;;;25.60;90.50;;;25.08;40.84;101632.47;4995773;28;20018;-73
2021/06/23 08:22:57;;;;;;;4.07;1.30;;;25.80;90.40;;;24.87;41.47;101628.09;4992167;28;20036;-73
2021/06/23 08:25:23;;;;;;;9.32;2.03;;;25.00;90.70;;;22.63;48.31;101635.16;5014020;28;20029;-72
2021/06/23 08:27:52;;;;;;;8.32;1.75;;;24.20;92.80;;;22.19;48.50;101631.63;5014164;28;20520;-72
2021/06/23 08:30:20;;;;;;;7.82;1.90;;;24.00;94.00;;;23.00;47.68;101634.81;5012688;28;20049;-73
2021/06/23 08:32:47;;;;;;;7.93;1.98;;;24.70;92.70;;;23.00;46.68;101629.44;5001353;28;20049;-73
2021/06/23 08:35:14;;;;;;;6.32;1.77;;;24.10;92.50;;;21.65;51.84;101619.00;5005631;28;20026;-73
2021/06/23 08:37:42;;;;;;;4.93;1.70;;;22.90;94.10;;;20.55;51.90;101629.13;4998002;28;20501;-72
2021/06/23 08:40:13;;;;;;;7.93;2.13;;;23.00;94.40;;;21.30;51.63;101627.97;4998868;28;20062;-72
2021/06/23 08:42:40;;;;;;;7.75;1.92;;;23.00;95.40;;;20.65;53.42;101624.84;5012818;28;20129;-73
2021/06/23 08:45:09;;;;;;;5.53;1.90;;;23.00;94.30;;;20.97;53.60;101621.56;5006096;28;20392;-72
2021/06/23 08:47:40;;;;;;;5.88;2.47;;;23.30;95.50;;;22.08;50.14;101637.00;5016744;28;20109;-72
2021/06/23 08:50:11;;;;;;;10.77;1.80;;;23.90;94.10;;;23.22;46.23;101638.31;4985056;28;21260;-72
2021/06/23 08:52:38;;;;;;;6.03;1.60;;;24.00;93.70;;;23.30;47.35;101641.19;4980317;28;20443;-73
2021/06/23 08:55:06;;;;;;;7.03;1.83;;;23.60;93.60;;;21.96;51.47;101648.72;4982300;28;20022;-72
2021/06/23 08:57:34;;;;;;;10.80;2.17;;;24.20;95.10;;;23.25;48.32;101657.72;4981005;28;20038;-72
2021/06/23 09:00:06;;;;;;;8.48;2.15;;;25.10;93.40;;;24.67;44.00;101643.41;4982897;28;20022;-72
2021/06/23 09:02:49;;;;;;;5.53;1.50;;;25.30;91.60;;;24.69;43.35;101645.97;4959902;28;20109;-73
2021/06/23 09:05:47;;;;;;;6.32;1.73;;;24.20;92.80;;;21.86;49.83;101653.97;4947205;28;20046;-73
2021/06/23 09:08:39;;;;;;;7.85;1.98;;;23.90;93.60;;;22.52;50.14;101656.69;4939168;28;20212;-73
2021/06/23 09:11:21;;;;;;;6.97;1.67;;;24.20;94.40;;;23.77;49.14;101649.69;4941121;28;20059;-72
2021/06/23 09:14:29;;;;;;;7.10;1.83;;;24.60;92.90;;;23.93;46.02;101649.16;4942519;28;20366;-73
2021/06/23 09:17:24;;;;;;;6.13;2.50;;;23.70;93.80;;;21.00;52.68;101663.31;4958503;28;20108;-72
2021/06/23 09:20:05;;;;;;;8.00;2.10;;;22.20;96.10;;;20.24;54.24;101658.16;4962249;28;20121;-73
2021/06/23 09:23:08;;;;;;;9.02;2.40;;;21.20;97.30;;;19.18;58.01;101662.03;4938644;28;20037;-73
2021/06/23 09:26:26;;;;;;;10.95;2.40;;;21.10;99.80;;;20.23;56.82;101655.56;4946659;28;20424;-73
2021/06/23 09:29:25;;;;;;;6.10;2.10;;;21.30;98.70;;;20.00;56.46;101658.09;4928426;28;20080;-73
2021/06/23 09:32:03;;;;;;;9.13;2.00;;;21.30;99.00;;;20.35;56.11;101656.53;4947496;28;20088;-73
2021/06/23 09:35:17;;;;;;;11.32;2.38;;;21.60;99.60;;;20.99;54.69;101665.13;4979938;28;20045;-72
2021/06/23 09:38:00;;;;;;;6.22;1.88;;;21.90;99.90;;;20.99;54.75;101654.44;4962726;28;20391;-72
2021/06/23 09:41:25;;;;;;;8.10;2.00;;;22.20;99.90;;;21.46;55.12;101646.38;4969776;28;20056;-73
2021/06/23 09:44:40;;;;;;;9.57;1.98;;;22.80;99.20;;;22.01;53.87;101660.78;4956967;28;20092;-73
2021/06/23 09:47:45;;;;;;;9.45;1.88;;;22.80;97.40;;;21.53;52.82;101679.75;4943300;28;20026;-73
2021/06/23 09:50:48;;;;;;;7.30;2.00;;;22.80;98.30;;;20.70;56.57;101686.03;4949914;28;20042;-72
2021/06/23 09:53:41;;;;;;;9.30;2.10;;;22.80;98.20;;;22.21;51.47;101683.31;4960297;28;20370;-73
2021/06/23 09:56:58;;;;;;;8.10;1.98;;;22.80;97.20;;;22.20;51.48;101688.78;4961541;28;20038;-73
2021/06/23 09:59:59;;;;;;;14.15;1.73;;;22.70;99.00;;;22.02;51.63;101691.13;4941714;28;20069;-73
2021/06/23 10:03:10;;;;;;;10.07;2.25;;;23.10;98.30;;;22.25;51.35;101687.50;4948477;28;20046;-73
2021/06/23 10:06:43;;;;;;;9.50;2.10;;;23.40;97.50;;;22.56;49.84;101679.59;4977570;28;20045;-73
2021/06/23 10:09:59;;;;;;;11.00;2.00;;;22.90;96.90;;;22.29;49.56;101686.25;4935048;28;20050;-73
2021/06/23 10:13:41;;;;;;;5.80;1.95;;;23.40;96.90;;;22.83;48.59;101694.41;4953043;28;20038;-73
2021/06/23 10:17:05;;;;;;;8.98;2.38;;;23.70;95.40;;;22.97;48.39;101699.47;4946287;28;20042;-73
2021/06/23 10:19:59;;;;;;;7.97;2.53;;;23.70;94.90;;;22.12;50.05;101710.88;4946934;28;20386;-73
2021/06/23 10:23:06;;;;;;;7.10;1.75;;;23.50;95.90;;;22.51;49.05;101708.66;4960789;28;20105;-73
2021/06/23 10:26:01;;;;;;;6.10;1.85;;;23.70;96.40;;;22.96;49.76;101719.28;4945260;28;20042;-73
2021/06/23 10:28:29;;;;;;;6.35;1.85;;;23.70;95.70;;;23.14;47.50;101707.00;4975065;28;20048;-72
2021/06/23 10:31:05;;;;;;;11.15;2.08;;;23.70;95.90;;;22.97;48.30;101709.38;4950659;28;20441;-72
2021/06/23 10:34:07;;;;;;;11.13;2.35;;;23.50;95.50;;;22.56;49.44;101714.50;4968387;28;20042;-72
2021/06/23 10:36:43;;;;;;;9.15;2.20;;;23.10;96.50;;;22.44;50.43;101710.13;4943889;28;20049;-72
2021/06/23 10:39:26;;;;;;;9.10;2.03;;;23.20;97.60;;;22.32;50.75;101709.31;4965308;28;20029;-72
2021/06/23 10:42:32;;;;;;;8.63;1.92;;;23.20;96.10;;;22.25;50.97;101724.19;4950532;28;20041;-72
2021/06/23 10:45:32;;;;;;;5.45;1.80;;;23.30;96.50;;;22.23;51.47;101710.06;4961222;28;20914;-72
2021/06/23 10:48:41;;;;;;;6.50;1.85;;;23.30;96.90;;;22.16;52.55;101709.66;4961321;28;20049;-72
2021/06/23 10:51:40;;;;;;;8.93;2.25;;;23.40;97.70;;;22.23;52.31;101705.53;4968746;28;20388;-72